Time;durP1;ratioP1;P1;durP2;ratioP2;P2;SDS_P1;SDS_P2;PMS_P1;PMS_P2;Temp;Humidity;BMP_temperature;BMP_pressure;BME280_temperature;BME280_humidity;BME280_pressure;Samples;Min_cycle;Max_cycle;Signal;HPM_P1;HPM_P2
2023/08/13 00:02:00;;;;;;;27.70;4.50;;;;;;;;;;5019697;28;20727;-70
2023/08/13 00:04:25;;;;;;;28.48;5.13;;;;;;;;;;5016984;28;20040;-69
2023/08/13 00:06:53;;;;;;;28.92;5.55;;;;;;;;;;5033021;28;22313;-70
2023/08/13 00:09:18;;;;;;;35.17;5.20;;;;;;;;;;5016027;28;20041;-68
2023/08/13 00:11:44;;;;;;;27.35;5.45;;;;;;;;;;5017429;28;20520;-69
2023/08/13 00:14:11;;;;;;;27.17;4.88;;;;;;;;;;5014070;28;20044;-69
2023/08/13 00:16:37;;;;;;;28.08;5.30;;;;;;;;;;5019426;28;20037;-70
2023/08/13 00:19:02;;;;;;;26.48;4.50;;;;;;;;;;5016390;28;20056;-71
2023/08/13 00:21:27;;;;;;;25.40;4.57;;;;;;;;;;5018759;28;20065;-72
2023/08/13 00:23:55;;;;;;;33.67;5.10;;;;;;;;;;5005035;28;20064;-71
2023/08/13 00:26:20;;;;;;;26.15;5.13;;;;;;;;;;5017954;28;20501;-69
2023/08/13 00:28:45;;;;;;;28.42;4.63;;;;;;;;;;5014035;28;20043;-69
2023/08/13 00:31:14;;;;;;;27.77;4.78;;;;;;;;;;5017407;28;20048;-69
2023/08/13 00:33:39;;;;;;;32.83;4.72;;;;;;;;;;5017193;28;20116;-69
2023/08/13 00:36:05;;;;;;;30.67;4.82;;;;;;;;;;5019174;28;20140;-68
2023/08/13 00:38:32;;;;;;;27.85;5.30;;;;;;;;;;5021059;28;20106;-69
2023/08/13 00:40:57;;;;;;;24.00;4.55;;;;;;;;;;5021098;28;20041;-68
2023/08/13 00:43:23;;;;;;;26.55;4.72;;;;;;;;;;5021361;28;20037;-69
2023/08/13 00:45:48;;;;;;;23.05;4.30;;;;;;;;;;5021654;28;20046;-68
2023/08/13 00:48:13;;;;;;;26.00;4.30;;;;;;;;;;5018075;28;20186;-68
2023/08/13 00:50:39;;;;;;;26.77;4.18;;;;;;;;;;5052960;28;20095;-69
2023/08/13 00:53:05;;;;;;;30.65;4.93;;;;;;;;;;5050846;28;20386;-66
2023/08/13 00:55:33;;;;;;;21.83;3.97;;;;;;;;;;5007846;28;20031;-68
2023/08/13 00:58:01;;;;;;;27.48;4.68;;;;;;;;;;5020436;28;20033;-68
2023/08/13 01:00:26;;;;;;;23.23;4.20;;;;;;;;;;5021698;28;20029;-70
2023/08/13 01:02:52;;;;;;;34.80;5.10;;;;;;;;;;5034335;28;20037;-71
2023/08/13 01:05:17;;;;;;;25.20;4.60;;;;;;;;;;5008318;28;20029;-69
2023/08/13 01:07:45;;;;;;;18.40;4.00;;;;;;;;;;5050565;28;20037;-69
2023/08/13 01:10:28;;;;;;;28.75;4.97;;;;;;;;;;5018735;28;20032;-70
2023/08/13 01:13:01;;;;;;;24.47;4.50;;;;;;;;;;5020548;28;20044;-69
2023/08/13 01:15:31;;;;;;;21.65;3.90;;;;;;;;;;5018143;28;20033;-68
2023/08/13 01:17:58;;;;;;;23.95;3.95;;;;;;;;;;5019147;28;20040;-69
2023/08/13 01:20:28;;;;;;;27.35;4.47;;;;;;;;;;5019852;28;20036;-70
2023/08/13 01:22:53;;;;;;;22.60;4.18;;;;;;;;;;5018587;28;20417;-70
2023/08/13 01:25:18;;;;;;;24.02;4.40;;;;;;;;;;5019111;28;20037;-70
2023/08/13 01:27:48;;;;;;;20.73;3.60;;;;;;;;;;5019976;28;20032;-68
2023/08/13 01:30:17;;;;;;;26.48;3.95;;;;;;;;;;5018257;28;20045;-70
2023/08/13 01:32:54;;;;;;;22.70;4.25;;;;;;;;;;5019824;27;20045;-70
2023/08/13 01:35:21;;;;;;;20.95;4.28;;;;;;;;;;5020022;28;20049;-70
2023/08/13 01:37:47;;;;;;;26.80;4.25;;;;;;;;;;5017558;28;20033;-69
2023/08/13 01:40:12;;;;;;;24.52;4.20;;;;;;;;;;5021082;28;20076;-71
2023/08/13 01:42:37;;;;;;;21.38;3.95;;;;;;;;;;5020522;28;20433;-70
2023/08/13 01:45:03;;;;;;;19.48;3.80;;;;;;;;;;4999085;28;20415;-69
2023/08/13 01:47:28;;;;;;;28.17;4.32;;;;;;;;;;5027339;28;20984;-67
2023/08/13 01:49:54;;;;;;;25.77;4.95;;;;;;;;;;5001203;28;20049;-68
2023/08/13 01:52:19;;;;;;;24.50;4.43;;;;;;;;;;5003886;28;20059;-69
2023/08/13 01:54:44;;;;;;;32.60;4.43;;;;;;;;;;5001334;28;20046;-69
2023/08/13 01:57:10;;;;;;;26.45;4.65;;;;;;;;;;4997180;28;20506;-70
2023/08/13 01:59:35;;;;;;;27.50;4.68;;;;;;;;;;4997365;28;20072;-68
2023/08/13 02:02:00;;;;;;;30.20;4.15;;;;;;;;;;4999290;28;20100;-69
2023/08/13 02:04:25;;;;;;;33.80;4.97;;;;;;;;;;4995398;28;20034;-69
2023/08/13 02:06:51;;;;;;;28.20;4.80;;;;;;;;;;5004018;28;20037;-68
2023/08/13 02:09:16;;;;;;;33.08;5.13;;;;;;;;;;4996079;28;20034;-67
2023/08/13 02:11:43;;;;;;;28.40;4.47;;;;;;;;;;5003452;28;20065;-69
2023/08/13 02:14:09;;;;;;;25.25;4.00;;;;;;;;;;4997534;28;20299;-69
2023/08/13 02:16:34;;;;;;;25.55;4.30;;;;;;;;;;5005314;28;20042;-68
2023/08/13 02:18:59;;;;;;;24.77;4.68;;;;;;;;;;5023181;28;20045;-69
2023/08/13 02:21:24;;;;;;;24.42;4.20;;;;;;;;;;5021997;28;20157;-70
2023/08/13 02:23:50;;;;;;;23.00;4.25;;;;;;;;;;5020178;28;20040;-70
2023/08/13 02:26:15;;;;;;;30.75;5.38;;;;;;;;;;5006981;28;20076;-70
2023/08/13 02:28:43;;;;;;;35.47;5.03;;;;;;;;;;5018463;28;20584;-69
2023/08/13 02:31:09;;;;;;;26.40;4.75;;;;;;;;;;5017825;28;20037;-70
2023/08/13 02:33:34;;;;;;;22.70;4.25;;;;;;;;;;5018447;28;20037;-71
2023/08/13 02:35:59;;;;;;;23.67;4.38;;;;;;;;;;5018312;28;20043;-69
2023/08/13 02:38:25;;;;;;;22.30;3.75;;;;;;;;;;5019359;28;20038;-70
2023/08/13 02:40:50;;;;;;;22.23;3.67;;;;;;;;;;5016870;28;20040;-69
2023/08/13 02:43:15;;;;;;;22.80;4.40;;;;;;;;;;5018866;28;20124;-69
2023/08/13 02:45:40;;;;;;;21.73;3.90;;;;;;;;;;5017019;28;20049;-69
2023/08/13 02:48:08;;;;;;;25.67;4.15;;;;;;;;;;5018185;28;20029;-68
2023/08/13 02:50:33;;;;;;;19.73;3.47;;;;;;;;;;5008159;28;20495;-69
2023/08/13 02:52:58;;;;;;;23.55;4.28;;;;;;;;;;5017805;28;20025;-70
2023/08/13 02:55:24;;;;;;;20.88;4.28;;;;;;;;;;5017649;28;20186;-69
2023/08/13 02:57:49;;;;;;;22.60;3.45;;;;;;;;;;5016753;28;20032;-69
2023/08/13 03:00:14;;;;;;;22.77;3.75;;;;;;;;;;5017128;28;20037;-69
2023/08/13 03:02:40;;;;;;;23.58;4.28;;;;;;;;;;5015087;28;20162;-71
2023/08/13 03:05:05;;;;;;;18.90;3.75;;;;;;;;;;5017422;28;20029;-69
2023/08/13 03:07:30;;;;;;;16.70;3.63;;;;;;;;;;5014701;28;20402;-71
2023/08/13 03:09:56;;;;;;;21.80;4.03;;;;;;;;;;5019984;28;20149;-72
2023/08/13 03:12:21;;;;;;;21.42;3.88;;;;;;;;;;5020841;28;20033;-69
2023/08/13 03:14:47;;;;;;;23.33;4.53;;;;;;;;;;5004769;28;20048;-71
2023/08/13 03:17:13;;;;;;;26.17;3.90;;;;;;;;;;5015650;28;20037;-70
2023/08/13 03:19:38;;;;;;;19.25;3.55;;;;;;;;;;5018034;28;20036;-70
2023/08/13 03:22:03;;;;;;;24.70;4.28;;;;;;;;;;5018940;28;20095;-70
2023/08/13 03:24:29;;;;;;;27.58;5.40;;;;;;;;;;5021643;28;20481;-70
2023/08/13 03:26:54;;;;;;;22.52;3.35;;;;;;;;;;5017794;28;20044;-68
2023/08/13 03:29:21;;;;;;;28.38;5.10;;;;;;;;;;5006658;28;20061;-71
2023/08/13 03:31:47;;;;;;;23.98;3.88;;;;;;;;;;5021591;28;20029;-69
2023/08/13 03:34:12;;;;;;;27.65;4.15;;;;;;;;;;5014752;28;20052;-69
2023/08/13 03:36:37;;;;;;;21.67;3.85;;;;;;;;;;5014798;28;20037;-70
2023/08/13 03:39:03;;;;;;;25.38;4.10;;;;;;;;;;5019390;28;20060;-70
2023/08/13 03:41:28;;;;;;;27.60;4.68;;;;;;;;;;5017220;28;20041;-69
2023/08/13 03:43:55;;;;;;;20.02;3.47;;;;;;;;;;5015943;28;20201;-69
2023/08/13 03:46:20;;;;;;;23.33;4.10;;;;;;;;;;5017313;28;20029;-69
2023/08/13 03:48:46;;;;;;;20.40;3.55;;;;;;;;;;5018762;28;20120;-70
2023/08/13 03:51:14;;;;;;;20.35;3.50;;;;;;;;;;5015886;28;20064;-69
2023/08/13 03:53:39;;;;;;;23.15;4.15;;;;;;;;;;5016412;28;20049;-69
2023/08/13 03:56:07;;;;;;;26.70;4.10;;;;;;;;;;5017362;28;20815;-68
2023/08/13 03:58:34;;;;;;;22.13;3.53;;;;;;;;;;5047100;28;20047;-68
2023/08/13 04:01:03;;;;;;;22.60;3.33;;;;;;;;;;5018765;28;20041;-70
2023/08/13 04:03:28;;;;;;;22.92;3.60;;;;;;;;;;5017947;28;20045;-70
2023/08/13 04:05:56;;;;;;;26.25;4.13;;;;;;;;;;5042696;28;20128;-67
2023/08/13 04:08:21;;;;;;;24.73;3.83;;;;;;;;;;5015398;28;20094;-67
2023/08/13 04:10:49;;;;;;;21.02;4.47;;;;;;;;;;5015404;28;21289;-68
2023/08/13 04:13:15;;;;;;;30.33;4.05;;;;;;;;;;5016331;28;20083;-68
2023/08/13 04:15:40;;;;;;;20.70;3.88;;;;;;;;;;5000158;28;20037;-69
2023/08/13 04:18:06;;;;;;;19.17;3.53;;;;;;;;;;5018095;28;20083;-70
2023/08/13 04:20:31;;;;;;;19.70;3.40;;;;;;;;;;5015125;28;20052;-70
2023/08/13 04:22:56;;;;;;;16.17;3.00;;;;;;;;;;5017977;28;20120;-70
2023/08/13 04:25:22;;;;;;;20.02;3.38;;;;;;;;;;5005075;28;20634;-70
2023/08/13 04:27:47;;;;;;;16.17;2.83;;;;;;;;;;5014261;28;20029;-69
2023/08/13 04:30:12;;;;;;;17.35;3.33;;;;;;;;;;5015615;28;20048;-70
2023/08/13 04:32:39;;;;;;;18.10;3.10;;;;;;;;;;5015218;28;20041;-69
2023/08/13 04:35:04;;;;;;;14.73;3.03;;;;;;;;;;5017631;28;20068;-71
2023/08/13 04:37:30;;;;;;;18.30;2.80;;;;;;;;;;5014922;28;20311;-71
2023/08/13 04:39:57;;;;;;;17.88;3.10;;;;;;;;;;5017583;28;21018;-69
2023/08/13 04:42:23;;;;;;;16.30;2.72;;;;;;;;;;5013476;28;20034;-70
2023/08/13 04:44:48;;;;;;;13.73;2.53;;;;;;;;;;5015219;28;20073;-69
2023/08/13 04:47:13;;;;;;;16.60;2.90;;;;;;;;;;5013141;28;20678;-70
2023/08/13 04:49:41;;;;;;;19.60;2.67;;;;;;;;;;5017503;28;20082;-69
2023/08/13 04:52:06;;;;;;;24.20;3.38;;;;;;;;;;5005390;28;20045;-70
2023/08/13 04:54:31;;;;;;;16.95;2.92;;;;;;;;;;5048173;28;20130;-70
2023/08/13 04:56:56;;;;;;;13.32;2.58;;;;;;;;;;5016427;28;20037;-70
2023/08/13 04:59:22;;;;;;;17.88;2.85;;;;;;;;;;5018594;28;20082;-69
2023/08/13 05:01:47;;;;;;;19.70;3.38;;;;;;;;;;5014487;28;20037;-70
2023/08/13 05:04:13;;;;;;;16.73;2.80;;;;;;;;;;5017655;28;20062;-71
2023/08/13 05:06:38;;;;;;;21.65;3.35;;;;;;;;;;5020281;28;20548;-74
2023/08/13 05:09:03;;;;;;;18.85;3.13;;;;;;;;;;5030048;28;20038;-74
2023/08/13 05:11:29;;;;;;;21.20;3.22;;;;;;;;;;5062626;28;20037;-73
2023/08/13 05:13:54;;;;;;;15.70;2.95;;;;;;;;;;5027381;28;20477;-72
2023/08/13 05:16:19;;;;;;;15.77;3.50;;;;;;;;;;5061417;28;20049;-74
2023/08/13 05:18:45;;;;;;;25.27;3.63;;;;;;;;;;5022969;28;20052;-74
2023/08/13 05:21:10;;;;;;;19.55;4.05;;;;;;;;;;5028150;28;20057;-74
2023/08/13 05:23:35;;;;;;;21.83;3.25;;;;;;;;;;5029164;28;20041;-73
2023/08/13 05:26:01;;;;;;;18.40;3.63;;;;;;;;;;5032006;28;20034;-74
2023/08/13 05:28:26;;;;;;;19.38;3.40;;;;;;;;;;5030504;28;20045;-78
2023/08/13 05:30:51;;;;;;;16.00;3.33;;;;;;;;;;5027434;28;20067;-72
2023/08/13 05:33:16;;;;;;;28.60;3.70;;;;;;;;;;5029803;28;20033;-74
2023/08/13 05:35:44;;;;;;;17.48;3.28;;;;;;;;;;5023183;28;20034;-74
2023/08/13 05:38:12;;;;;;;19.48;3.53;;;;;;;;;;5027235;28;20037;-76
2023/08/13 05:40:40;;;;;;;22.92;3.45;;;;;;;;;;5026416;28;20033;-74
2023/08/13 05:43:05;;;;;;;18.35;3.10;;;;;;;;;;5028409;28;20504;-73
2023/08/13 05:45:33;;;;;;;17.23;3.28;;;;;;;;;;5030357;28;20038;-74
2023/08/13 05:47:58;;;;;;;22.10;3.70;;;;;;;;;;5032455;28;20027;-73
2023/08/13 05:50:24;;;;;;;18.92;2.53;;;;;;;;;;5014266;28;20517;-75
2023/08/13 05:52:49;;;;;;;20.92;3.20;;;;;;;;;;5026274;28;20030;-76
2023/08/13 05:55:15;;;;;;;18.50;3.03;;;;;;;;;;5022583;28;20048;-74
2023/08/13 05:57:40;;;;;;;18.75;2.70;;;;;;;;;;5027038;28;20453;-73
2023/08/13 06:00:09;;;;;;;14.82;2.33;;;;;;;;;;5034181;28;20022;-75
2023/08/13 06:02:35;;;;;;;15.85;2.70;;;;;;;;;;5035344;28;20116;-74
2023/08/13 06:05:03;;;;;;;20.45;3.60;;;;;;;;;;5034661;28;20037;-74
2023/08/13 06:07:28;;;;;;;17.48;2.75;;;;;;;;;;5008426;28;20611;-76
2023/08/13 06:09:53;;;;;;;19.90;2.75;;;;;;;;;;5020592;28;20043;-76
2023/08/13 06:12:19;;;;;;;10.70;2.58;;;;;;;;;;5021210;28;20060;-72
2023/08/13 06:14:44;;;;;;;20.83;3.10;;;;;;;;;;5019683;28;20120;-74
2023/08/13 06:17:09;;;;;;;14.85;2.45;;;;;;;;;;5033702;28;20044;-72
2023/08/13 06:19:36;;;;;;;14.15;2.90;;;;;;;;;;5029753;28;20147;-73
2023/08/13 06:22:01;;;;;;;20.15;3.20;;;;;;;;;;5027200;28;20045;-74
2023/08/13 06:24:26;;;;;;;17.17;2.72;;;;;;;;;;5027255;28;20112;-74
2023/08/13 06:26:52;;;;;;;15.93;2.92;;;;;;;;;;5017343;28;20041;-68
2023/08/13 06:29:17;;;;;;;20.88;2.95;;;;;;;;;;5018454;28;20059;-70
2023/08/13 06:31:42;;;;;;;14.43;2.53;;;;;;;;;;5017773;28;20325;-69
2023/08/13 06:34:08;;;;;;;15.50;3.03;;;;;;;;;;5013628;28;20048;-69
2023/08/13 06:36:33;;;;;;;14.07;2.38;;;;;;;;;;5017819;28;20533;-70
2023/08/13 06:38:58;;;;;;;13.90;2.58;;;;;;;;;;5017867;28;20034;-71
2023/08/13 06:41:24;;;;;;;13.45;2.55;;;;;;;;;;5016465;28;20060;-69
2023/08/13 06:43:49;;;;;;;15.00;2.55;;;;;;;;;;5017731;28;21050;-68
2023/08/13 06:46:14;;;;;;;16.33;2.92;;;;;;;;;;5048992;28;20331;-70
2023/08/13 06:48:40;;;;;;;22.63;2.45;;;;;;;;;;5018321;28;20144;-70
2023/08/13 06:51:05;;;;;;;15.88;2.55;;;;;;;;;;5016592;28;20619;-68
2023/08/13 06:53:30;;;;;;;15.32;3.15;;;;;;;;;;5017819;28;20055;-70
2023/08/13 06:56:00;;;;;;;9.52;2.20;;;;;;;;;;5016698;28;20076;-70
2023/08/13 06:58:25;;;;;;;16.35;3.10;;;;;;;;;;5015791;28;20029;-70
2023/08/13 07:00:50;;;;;;;15.07;2.20;;;;;;;;;;5020802;28;20037;-73
2023/08/13 07:03:16;;;;;;;11.57;2.22;;;;;;;;;;5026417;28;20039;-76
2023/08/13 07:05:41;;;;;;;10.07;2.20;;;;;;;;;;5027158;28;20394;-72
2023/08/13 07:08:06;;;;;;;9.55;1.95;;;;;;;;;;5029608;28;20025;-71
2023/08/13 07:10:32;;;;;;;11.82;2.50;;;;;;;;;;5012467;28;20136;-73
2023/08/13 07:12:57;;;;;;;14.45;2.22;;;;;;;;;;5023758;28;20125;-71
2023/08/13 07:15:23;;;;;;;11.90;3.08;;;;;;;;;;5028891;28;20059;-72
2023/08/13 07:17:48;;;;;;;14.88;2.97;;;;;;;;;;5031938;28;20397;-73
2023/08/13 07:20:16;;;;;;;16.55;2.50;;;;;;;;;;5032279;28;20402;-72
2023/08/13 07:22:44;;;;;;;11.85;2.78;;;;;;;;;;5021907;28;20088;-75
2023/08/13 07:25:13;;;;;;;13.32;2.20;;;;;;;;;;5020894;28;20116;-73
2023/08/13 07:27:39;;;;;;;11.45;2.60;;;;;;;;;;5058508;28;20024;-72
2023/08/13 07:30:07;;;;;;;17.30;3.22;;;;;;;;;;5028956;28;20041;-71
2023/08/13 07:32:33;;;;;;;11.85;2.10;;;;;;;;;;5026961;28;20874;-72
2023/08/13 07:34:59;;;;;;;12.27;2.17;;;;;;;;;;5028434;28;20037;-72
2023/08/13 07:37:26;;;;;;;13.85;2.80;;;;;;;;;;5022601;28;20044;-75
2023/08/13 07:39:51;;;;;;;16.13;3.03;;;;;;;;;;5030189;28;20052;-73
2023/08/13 07:42:16;;;;;;;14.02;2.45;;;;;;;;;;5023194;28;20121;-71
2023/08/13 07:44:42;;;;;;;11.80;2.63;;;;;;;;;;5026114;28;20036;-72
2023/08/13 07:47:07;;;;;;;15.50;2.60;;;;;;;;;;5022034;28;20044;-72
2023/08/13 07:49:34;;;;;;;11.60;2.40;;;;;;;;;;5024430;28;20036;-70
2023/08/13 07:52:00;;;;;;;17.48;3.25;;;;;;;;;;5022772;28;20041;-73
2023/08/13 07:54:28;;;;;;;14.75;2.83;;;;;;;;;;5024599;28;20036;-73
2023/08/13 07:56:54;;;;;;;11.05;2.90;;;;;;;;;;5025419;28;20032;-71
2023/08/13 07:59:19;;;;;;;13.38;2.88;;;;;;;;;;5021843;28;20037;-70
2023/08/13 08:01:45;;;;;;;13.85;2.88;;;;;;;;;;5037638;28;20051;-72
2023/08/13 08:04:10;;;;;;;14.10;2.78;;;;;;;;;;5019601;28;20029;-75
2023/08/13 08:06:35;;;;;;;11.88;2.17;;;;;;;;;;5051651;28;20174;-72
2023/08/13 08:09:01;;;;;;;13.57;2.53;;;;;;;;;;5025297;28;20060;-72
2023/08/13 08:11:26;;;;;;;16.80;2.63;;;;;;;;;;5012385;28;20041;-72
2023/08/13 08:13:52;;;;;;;11.18;2.33;;;;;;;;;;5019070;28;20168;-73
2023/08/13 08:16:19;;;;;;;12.07;2.50;;;;;;;;;;5023698;28;20069;-71
2023/08/13 08:18:45;;;;;;;15.38;2.38;;;;;;;;;;5028992;28;20068;-72
2023/08/13 08:21:10;;;;;;;8.50;1.95;;;;;;;;;;5039623;28;20071;-72
2023/08/13 08:23:35;;;;;;;13.60;2.60;;;;;;;;;;5026650;28;20033;-72
2023/08/13 08:26:00;;;;;;;12.05;2.20;;;;;;;;;;5020961;28;20055;-75
2023/08/13 08:28:26;;;;;;;13.88;1.98;;;;;;;;;;5016960;28;20088;-70
2023/08/13 08:30:52;;;;;;;9.27;1.85;;;;;;;;;;5019901;28;20383;-73
2023/08/13 08:33:17;;;;;;;11.30;1.85;;;;;;;;;;5011687;28;20033;-69
2023/08/13 08:35:42;;;;;;;14.23;2.60;;;;;;;;;;5018688;28;20896;-70
2023/08/13 08:38:07;;;;;;;12.85;2.40;;;;;;;;;;5017148;28;20032;-70
2023/08/13 08:40:33;;;;;;;12.65;2.22;;;;;;;;;;5016654;28;20025;-73
2023/08/13 08:42:58;;;;;;;14.40;2.55;;;;;;;;;;5019333;28;20036;-73
2023/08/13 08:45:24;;;;;;;10.63;2.50;;;;;;;;;;5019713;28;20033;-71
2023/08/13 08:47:50;;;;;;;12.15;3.10;;;;;;;;;;5018082;28;20112;-72
2023/08/13 08:50:16;;;;;;;10.63;2.50;;;;;;;;;;5016615;28;20156;-70
2023/08/13 08:52:44;;;;;;;14.48;3.22;;;;;;;;;;5014662;28;20043;-72
2023/08/13 08:55:11;;;;;;;12.05;3.00;;;;;;;;;;5014556;28;20060;-73
2023/08/13 08:57:37;;;;;;;14.15;3.10;;;;;;;;;;5023638;28;20112;-71
2023/08/13 09:00:02;;;;;;;15.57;3.35;;;;;;;;;;5020046;28;20047;-71
2023/08/13 09:02:28;;;;;;;13.63;2.72;;;;;;;;;;5018055;28;20486;-72
2023/08/13 09:04:53;;;;;;;12.40;3.47;;;;;;;;;;5018119;28;20187;-73
2023/08/13 09:07:23;;;;;;;10.50;3.17;;;;;;;;;;5016460;28;20037;-72
2023/08/13 09:09:49;;;;;;;13.15;3.85;;;;;;;;;;5006866;28;20330;-73
2023/08/13 09:12:14;;;;;;;13.27;3.45;;;;;;;;;;5015532;28;20422;-72
2023/08/13 09:14:40;;;;;;;18.05;4.20;;;;;;;;;;5013441;28;20306;-71
2023/08/13 09:17:05;;;;;;;14.80;3.28;;;;;;;;;;5045160;28;20094;-73
2023/08/13 09:19:33;;;;;;;15.13;3.72;;;;;;;;;;5035992;28;20110;-69
2023/08/13 09:21:59;;;;;;;14.85;3.83;;;;;;;;;;5015241;28;20123;-72
2023/08/13 09:24:33;;;;;;;14.02;3.58;;;;;;;;;;5016126;28;20592;-74
2023/08/13 09:26:58;;;;;;;13.57;3.97;;;;;;;;;;5014974;28;20048;-74
2023/08/13 09:29:24;;;;;;;10.05;2.60;;;;;;;;;;5014390;28;20037;-74
2023/08/13 09:31:49;;;;;;;13.98;2.30;;;;;;;;;;5016873;28;20033;-75
2023/08/13 09:34:14;;;;;;;12.73;2.47;;;;;;;;;;5016372;28;20056;-75
2023/08/13 09:36:40;;;;;;;9.23;2.20;;;;;;;;;;5002245;28;20576;-74
2023/08/13 09:39:07;;;;;;;10.77;2.28;;;;;;;;;;5023976;28;20787;-74
2023/08/13 09:41:33;;;;;;;10.00;2.30;;;;;;;;;;5019301;28;20511;-72
2023/08/13 09:44:04;;;;;;;9.77;1.95;;;;;;;;;;5015846;28;20044;-75
2023/08/13 09:46:30;;;;;;;9.82;2.25;;;;;;;;;;5016879;28;20041;-74
2023/08/13 09:48:57;;;;;;;10.65;2.25;;;;;;;;;;5014389;28;20036;-72
2023/08/13 09:51:26;;;;;;;11.10;2.22;;;;;;;;;;5012349;28;20130;-71
2023/08/13 09:53:58;;;;;;;10.38;2.05;;;;;;;;;;5005219;28;20517;-73
2023/08/13 09:56:25;;;;;;;9.60;2.05;;;;;;;;;;5019069;28;20495;-73
2023/08/13 09:58:51;;;;;;;9.15;2.25;;;;;;;;;;5019955;28;20129;-74
2023/08/13 10:01:17;;;;;;;12.15;2.25;;;;;;;;;;5023779;28;20080;-75
2023/08/13 10:03:42;;;;;;;11.73;2.00;;;;;;;;;;5022054;28;20525;-73
2023/08/13 10:06:11;;;;;;;14.25;2.10;;;;;;;;;;5022715;28;20037;-72
2023/08/13 10:08:36;;;;;;;11.40;2.30;;;;;;;;;;5016453;28;20049;-72
2023/08/13 10:11:02;;;;;;;7.30;2.20;;;;;;;;;;5017152;28;20603;-72
2023/08/13 10:13:27;;;;;;;13.27;2.70;;;;;;;;;;5017664;28;20123;-72
2023/08/13 10:15:53;;;;;;;10.15;2.42;;;;;;;;;;5019021;28;20138;-73
2023/08/13 10:18:22;;;;;;;11.77;2.50;;;;;;;;;;5045029;28;20092;-72
2023/08/13 10:20:47;;;;;;;11.65;2.47;;;;;;;;;;5033498;28;20099;-73
2023/08/13 10:23:12;;;;;;;7.57;2.10;;;;;;;;;;5049364;28;21887;-73
2023/08/13 10:25:38;;;;;;;10.02;2.60;;;;;;;;;;5016667;28;20533;-72
2023/08/13 10:28:42;;;;;;;7.63;2.20;;;;;;;;;;5014031;28;20108;-75
2023/08/13 10:31:23;;;;;;;7.85;1.90;;;;;;;;;;4997489;28;20520;-74
2023/08/13 10:33:59;;;;;;;11.57;2.83;;;;;;;;;;4989568;28;20060;-74
2023/08/13 10:36:39;;;;;;;11.70;2.58;;;;;;;;;;5013723;28;20029;-74
2023/08/13 10:39:24;;;;;;;12.05;2.78;;;;;;;;;;5047694;28;20082;-74
2023/08/13 10:41:49;;;;;;;10.13;2.22;;;;;;;;;;5022313;28;20585;-73
2023/08/13 10:44:31;;;;;;;11.57;2.35;;;;;;;;;;5020462;28;20045;-75
2023/08/13 10:46:56;;;;;;;;;;;;;;;;;;5045434;28;20038;-74
2023/08/13 10:49:21;;;;;;;9.27;2.20;;;;;;;;;;5017388;27;19920;-73
2023/08/13 10:51:50;;;;;;;7.18;2.22;;;;;;;;;;5013720;28;20118;-73
2023/08/13 10:54:16;;;;;;;8.73;2.20;;;;;;;;;;5046782;28;20037;-72
2023/08/13 10:56:42;;;;;;;13.07;2.40;;;;;;;;;;5014691;28;20790;-73
2023/08/13 10:59:10;;;;;;;10.48;2.47;;;;;;;;;;5023364;28;20048;-73
2023/08/13 11:01:55;;;;;;;10.43;2.10;;;;;;;;;;5020813;28;20669;-73
2023/08/13 11:04:20;;;;;;;10.57;2.30;;;;;;;;;;5022013;28;20485;-73
2023/08/13 11:06:46;;;;;;;10.68;2.20;;;;;;;;;;5023898;28;20043;-73
2023/08/13 11:09:11;;;;;;;7.47;1.88;;;;;;;;;;5025027;28;20044;-72
2023/08/13 11:11:36;;;;;;;9.35;2.05;;;;;;;;;;5027465;28;20092;-74
2023/08/13 11:14:04;;;;;;;8.05;2.00;;;;;;;;;;5017503;28;20091;-75
2023/08/13 11:16:33;;;;;;;8.65;1.88;;;;;;;;;;5023359;28;20229;-74
2023/08/13 11:18:59;;;;;;;7.93;1.80;;;;;;;;;;5022588;28;20041;-71
2023/08/13 11:21:24;;;;;;;11.27;1.70;;;;;;;;;;5023675;28;20061;-75
2023/08/13 11:23:51;;;;;;;10.15;1.85;;;;;;;;;;5020697;28;20033;-72
2023/08/13 11:26:17;;;;;;;7.43;1.90;;;;;;;;;;5026929;28;20037;-71
2023/08/13 11:28:47;;;;;;;8.93;1.75;;;;;;;;;;5032422;28;20099;-73
2023/08/13 11:31:12;;;;;;;7.78;2.13;;;;;;;;;;5039019;28;20102;-73
2023/08/13 11:33:37;;;;;;;9.45;1.98;;;;;;;;;;5010822;28;20596;-74
2023/08/13 11:36:03;;;;;;;9.90;2.03;;;;;;;;;;5015683;28;20258;-72
2023/08/13 11:38:31;;;;;;;7.07;1.70;;;;;;;;;;5019460;28;20570;-74
2023/08/13 11:40:56;;;;;;;4.82;1.20;;;;;;;;;;5015592;28;20040;-74
2023/08/13 11:43:23;;;;;;;7.90;1.48;;;;;;;;;;5017816;28;20061;-72
2023/08/13 11:45:49;;;;;;;6.25;1.33;;;;;;;;;;5018573;28;20025;-74
2023/08/13 11:48:18;;;;;;;5.93;1.52;;;;;;;;;;5022477;28;20028;-74
2023/08/13 11:50:56;;;;;;;5.55;1.50;;;;;;;;;;5029832;28;20158;-76
2023/08/13 11:53:21;;;;;;;6.05;1.33;;;;;;;;;;5002228;28;20037;-75
2023/08/13 11:55:48;;;;;;;4.88;1.50;;;;;;;;;;5004582;28;20292;-74
2023/08/13 11:58:17;;;;;;;6.00;1.58;;;;;;;;;;5018677;28;20082;-73
2023/08/13 12:00:43;;;;;;;6.38;1.80;;;;;;;;;;5036298;28;20082;-73
2023/08/13 12:03:08;;;;;;;7.30;1.70;;;;;;;;;;5024220;28;20037;-72
2023/08/13 12:05:34;;;;;;;5.88;1.33;;;;;;;;;;5026372;28;20041;-73
2023/08/13 12:08:01;;;;;;;7.05;1.52;;;;;;;;;;5022936;28;20029;-72
2023/08/13 12:10:26;;;;;;;6.45;1.58;;;;;;;;;;5024197;28;20044;-71
2023/08/13 12:12:52;;;;;;;9.18;1.75;;;;;;;;;;5032998;28;20029;-74
2023/08/13 12:15:20;;;;;;;9.80;1.77;;;;;;;;;;5031319;28;20102;-73
2023/08/13 12:17:45;;;;;;;7.32;1.30;;;;;;;;;;5032273;28;20037;-72
2023/08/13 12:20:13;;;;;;;8.43;1.50;;;;;;;;;;5029127;28;20118;-73
2023/08/13 12:22:41;;;;;;;6.80;1.47;;;;;;;;;;5028927;28;20065;-74
2023/08/13 12:25:10;;;;;;;9.35;1.92;;;;;;;;;;5023233;28;20163;-74
2023/08/13 12:27:35;;;;;;;9.30;2.00;;;;;;;;;;5024132;28;20647;-74
2023/08/13 12:30:03;;;;;;;9.95;1.90;;;;;;;;;;5021636;28;20116;-76
2023/08/13 12:32:28;;;;;;;8.02;1.60;;;;;;;;;;5023957;28;20041;-75
2023/08/13 12:34:54;;;;;;;7.78;1.80;;;;;;;;;;5025026;28;20056;-75
2023/08/13 12:37:19;;;;;;;8.25;1.50;;;;;;;;;;5021770;28;20044;-74
2023/08/13 12:39:44;;;;;;;7.28;1.65;;;;;;;;;;5027422;28;20044;-74
2023/08/13 12:42:10;;;;;;;11.32;1.80;;;;;;;;;;5033725;28;20071;-72
2023/08/13 12:44:35;;;;;;;5.53;1.77;;;;;;;;;;5022090;28;20037;-66
2023/08/13 12:47:00;;;;;;;9.18;1.92;;;;;;;;;;5017218;28;20067;-68
2023/08/13 12:49:26;;;;;;;11.30;1.80;;;;;;;;;;5007559;28;20939;-69
2023/08/13 12:51:51;;;;;;;8.23;1.40;;;;;;;;;;5016147;28;20128;-67
2023/08/13 12:54:16;;;;;;;13.38;2.00;;;;;;;;;;5012022;28;20045;-69
2023/08/13 12:56:41;;;;;;;10.45;1.80;;;;;;;;;;5017057;28;20141;-71
2023/08/13 12:59:07;;;;;;;11.60;1.40;;;;;;;;;;5031955;28;20063;-69
2023/08/13 13:01:32;;;;;;;10.25;1.05;;;;;;;;;;5019047;28;20467;-69
2023/08/13 13:03:58;;;;;;;7.88;1.15;;;;;;;;;;5017311;28;22229;-68
2023/08/13 13:06:23;;;;;;;7.53;0.90;;;;;;;;;;5018400;28;20036;-70
2023/08/13 13:08:48;;;;;;;8.60;1.20;;;;;;;;;;5020628;28;20087;-70
2023/08/13 13:11:14;;;;;;;9.95;1.77;;;;;;;;;;5018516;28;22509;-71
2023/08/13 13:13:39;;;;;;;12.27;2.03;;;;;;;;;;5016933;28;20486;-70
2023/08/13 13:16:04;;;;;;;12.75;1.88;;;;;;;;;;5004636;28;20037;-70
2023/08/13 13:18:32;;;;;;;10.20;2.05;;;;;;;;;;5021354;28;20047;-69
2023/08/13 13:20:58;;;;;;;10.18;1.52;;;;;;;;;;5016963;28;20045;-70
2023/08/13 13:23:26;;;;;;;13.65;2.25;;;;;;;;;;5002046;28;20097;-71
2023/08/13 13:25:52;;;;;;;11.48;1.77;;;;;;;;;;5015240;28;20403;-68
2023/08/13 13:28:19;;;;;;;10.40;1.70;;;;;;;;;;5017274;28;20025;-70
2023/08/13 13:30:44;;;;;;;12.85;2.05;;;;;;;;;;5017525;28;20049;-68
2023/08/13 13:33:10;;;;;;;10.18;1.80;;;;;;;;;;5016776;28;20061;-68
2023/08/13 13:35:35;;;;;;;13.90;2.30;;;;;;;;;;5015642;28;20468;-69
2023/08/13 13:38:00;;;;;;;11.35;1.95;;;;;;;;;;5014492;28;20124;-68
2023/08/13 13:40:26;;;;;;;9.05;1.77;;;;;;;;;;5016035;28;20044;-67
2023/08/13 13:42:51;;;;;;;7.70;1.50;;;;;;;;;;5012038;28;20033;-68
2023/08/13 13:45:21;;;;;;;8.90;2.05;;;;;;;;;;5015797;28;20041;-69
2023/08/13 13:47:49;;;;;;;9.88;1.65;;;;;;;;;;5013684;28;20030;-70
2023/08/13 13:50:15;;;;;;;5.68;1.20;;;;;;;;;;5011561;27;20061;-69
2023/08/13 13:52:41;;;;;;;8.45;1.98;;;;;;;;;;5019081;28;20097;-70
2023/08/13 13:55:07;;;;;;;7.97;1.65;;;;;;;;;;5016257;28;20052;-68
2023/08/13 13:57:32;;;;;;;11.68;1.83;;;;;;;;;;5014363;28;20036;-68
2023/08/13 13:59:58;;;;;;;8.95;1.25;;;;;;;;;;5013992;28;20079;-68
2023/08/13 14:02:23;;;;;;;8.13;1.20;;;;;;;;;;5013756;28;20754;-67
2023/08/13 14:04:48;;;;;;;7.65;1.10;;;;;;;;;;5015619;28;20112;-68
2023/08/13 14:07:14;;;;;;;8.15;1.63;;;;;;;;;;5013968;28;20932;-69
2023/08/13 14:09:39;;;;;;;4.32;0.90;;;;;;;;;;5014847;28;20040;-71
2023/08/13 14:12:05;;;;;;;4.93;1.10;;;;;;;;;;5015164;28;20033;-67
2023/08/13 14:14:30;;;;;;;6.72;1.23;;;;;;;;;;5010934;28;20640;-67
2023/08/13 14:16:55;;;;;;;8.85;1.30;;;;;;;;;;5013048;28;20041;-67
2023/08/13 14:19:21;;;;;;;9.32;1.20;;;;;;;;;;5014469;28;20131;-68
2023/08/13 14:21:46;;;;;;;7.93;1.10;;;;;;;;;;5014925;28;20133;-69
2023/08/13 14:24:13;;;;;;;13.20;1.52;;;;;;;;;;5014776;28;20497;-67
2023/08/13 14:26:39;;;;;;;7.53;1.10;;;;;;;;;;5015110;28;20040;-68
2023/08/13 14:29:04;;;;;;;10.02;1.10;;;;;;;;;;5046005;27;22279;-73